Time;durP1;ratioP1;P1;durP2;ratioP2;P2;SDS_P1;SDS_P2;PMS_P1;PMS_P2;Temp;Humidity;BMP_temperature;BMP_pressure;BME280_temperature;BME280_humidity;BME280_pressure;Samples;Min_cycle;Max_cycle;Signal;HPM_P1;HPM_P2
2021/10/28 00:13:38;;;;;;;;;;;10.40;99.90;;;;;;5119382;27;19934;-77
2021/10/28 00:16:12;;;;;;;;;;;10.40;99.90;;;;;;5114965;27;20035;-77
2021/10/28 00:18:42;;;;;;;;;;;10.40;99.90;;;;;;5118337;27;19967;-77
2021/10/28 00:21:09;;;;;;;;;;;10.30;99.90;;;;;;5116132;27;20424;-76
2021/10/28 00:23:43;;;;;;;;;;;10.30;99.90;;;;;;5118655;27;19930;-76
2021/10/28 00:26:10;;;;;;;;;;;10.30;99.90;;;;;;5116878;27;20015;-77
2021/10/28 00:28:37;;;;;;;;;;;10.20;99.90;;;;;;5119133;27;19930;-76
2021/10/28 00:31:04;;;;;;;;;;;10.20;99.90;;;;;;5114876;27;19931;-77
2021/10/28 00:33:32;;;;;;;;;;;10.20;99.90;;;;;;5115552;27;19924;-77
2021/10/28 00:35:59;;;;;;;;;;;10.20;99.90;;;;;;5126212;27;20297;-77
2021/10/28 00:38:26;;;;;;;;;;;10.10;99.90;;;;;;5118403;27;19930;-78
2021/10/28 00:40:54;;;;;;;;;;;10.10;99.90;;;;;;5121555;27;20035;-77
2021/10/28 00:43:21;;;;;;;;;;;10.10;99.90;;;;;;5114867;27;19945;-78
2021/10/28 00:45:49;;;;;;;;;;;10.10;99.90;;;;;;5119793;27;19930;-77
2021/10/28 00:48:16;;;;;;;;;;;10.10;99.90;;;;;;5121341;27;20405;-77
2021/10/28 00:50:43;;;;;;;;;;;10.10;99.90;;;;;;5114611;27;20014;-78
2021/10/28 00:53:09;;;;;;;;;;;10.00;99.90;;;;;;5121786;27;19932;-78
2021/10/28 00:55:36;;;;;;;;;;;10.00;99.90;;;;;;5118131;27;19923;-76
2021/10/28 00:58:04;;;;;;;;;;;10.00;99.90;;;;;;5123740;27;19930;-77
2021/10/28 01:00:31;;;;;;;;;;;10.00;99.90;;;;;;5119126;27;19924;-77
2021/10/28 01:02:57;;;;;;;;;;;10.00;99.90;;;;;;5122605;27;20022;-77
2021/10/28 01:05:24;;;;;;;;;;;10.00;99.90;;;;;;5120583;27;20016;-77
2021/10/28 01:07:51;;;;;;;;;;;10.00;99.90;;;;;;5120200;27;19930;-75
2021/10/28 01:10:17;;;;;;;;;;;10.00;99.90;;;;;;5114531;27;19934;-76
2021/10/28 01:12:44;;;;;;;;;;;10.00;99.90;;;;;;5115958;27;20007;-76
2021/10/28 01:15:13;;;;;;;;;;;10.00;99.90;;;;;;5112340;27;20267;-76
2021/10/28 01:17:40;;;;;;;;;;;10.00;99.90;;;;;;5118530;27;19970;-76
2021/10/28 01:20:09;;;;;;;;;;;10.00;99.90;;;;;;5124889;27;19934;-76
2021/10/28 01:22:36;;;;;;;;;;;10.00;99.90;;;;;;5112710;27;19959;-76
2021/10/28 01:25:02;;;;;;;;;;;10.00;99.90;;;;;;5112947;27;20402;-76
2021/10/28 01:27:29;;;;;;;;;;;10.00;99.90;;;;;;5114500;27;19932;-75
2021/10/28 01:29:56;;;;;;;;;;;10.00;99.90;;;;;;5120848;27;20370;-75
2021/10/28 01:32:22;;;;;;;;;;;10.00;99.90;;;;;;5122258;27;19930;-77
2021/10/28 01:34:49;;;;;;;;;;;10.00;99.90;;;;;;5120415;27;19924;-76
2021/10/28 01:37:17;;;;;;;;;;;10.00;99.90;;;;;;5123645;27;19927;-75
2021/10/28 01:39:44;;;;;;;;;;;10.00;99.90;;;;;;5124377;27;19931;-76
2021/10/28 01:42:11;;;;;;;;;;;10.00;99.90;;;;;;5114790;27;20376;-75
2021/10/28 01:44:38;;;;;;;;;;;10.00;99.90;;;;;;5119401;27;19931;-76
2021/10/28 01:47:05;;;;;;;;;;;10.00;99.90;;;;;;5117999;27;19979;-75
2021/10/28 01:49:32;;;;;;;;;;;10.00;99.90;;;;;;5121180;27;19923;-75
2021/10/28 01:51:59;;;;;;;;;;;9.90;99.90;;;;;;5112913;27;19931;-76
2021/10/28 01:54:28;;;;;;;;;;;9.90;99.90;;;;;;5115275;27;20329;-75
2021/10/28 01:56:55;;;;;;;;;;;9.90;99.90;;;;;;5113598;27;19955;-76
2021/10/28 01:59:22;;;;;;;;;;;9.80;99.90;;;;;;5113683;27;20391;-75
2021/10/28 02:01:48;;;;;;;;;;;9.80;99.90;;;;;;5111112;27;20015;-76
2021/10/28 02:04:15;;;;;;;;;;;9.80;99.90;;;;;;5111909;28;20430;-76
2021/10/28 02:06:41;;;;;;;;;;;9.80;99.90;;;;;;5111389;27;20371;-76
2021/10/28 02:09:08;;;;;;;;;;;9.80;99.90;;;;;;5116545;27;20298;-75
2021/10/28 02:11:37;;;;;;;;;;;9.80;99.90;;;;;;5118788;27;19930;-76
2021/10/28 02:14:03;;;;;;;;;;;9.80;99.90;;;;;;5120626;27;20382;-76
2021/10/28 02:16:31;;;;;;;;;;;9.80;99.90;;;;;;5117028;27;19924;-76
2021/10/28 02:18:58;;;;;;;;;;;9.80;99.90;;;;;;5116420;27;19935;-76
2021/10/28 02:21:24;;;;;;;;;;;9.80;99.90;;;;;;5117717;27;19924;-76
2021/10/28 02:23:51;;;;;;;;;;;9.90;99.90;;;;;;5117548;27;19923;-76
2021/10/28 02:26:18;;;;;;;;;;;9.90;99.90;;;;;;5112504;27;19923;-76
2021/10/28 02:28:46;;;;;;;;;;;9.90;99.90;;;;;;5110990;27;19924;-76
2021/10/28 02:31:12;;;;;;;;;;;9.90;99.90;;;;;;5111973;27;19923;-76
2021/10/28 02:33:39;;;;;;;;;;;9.90;99.90;;;;;;5118643;27;19979;-76
2021/10/28 02:36:06;;;;;;;;;;;9.90;99.90;;;;;;5115636;27;19931;-76
2021/10/28 02:38:33;;;;;;;;;;;9.90;99.90;;;;;;5121657;27;19924;-76
2021/10/28 02:40:59;;;;;;;;;;;10.00;99.90;;;;;;5112726;27;19924;-76
2021/10/28 02:43:26;;;;;;;;;;;9.90;99.90;;;;;;5125431;27;19924;-77
2021/10/28 02:45:55;;;;;;;;;;;9.90;99.90;;;;;;5111255;27;19930;-76
2021/10/28 02:48:21;;;;;;;;;;;9.90;99.90;;;;;;5118776;27;20396;-76
2021/10/28 02:50:48;;;;;;;;;;;9.80;99.90;;;;;;5111800;28;19930;-76
2021/10/28 02:53:15;;;;;;;;;;;9.80;99.90;;;;;;5119976;27;20617;-76
2021/10/28 02:55:42;;;;;;;;;;;9.80;99.90;;;;;;5112364;27;19923;-76
2021/10/28 02:58:08;;;;;;;;;;;9.90;99.90;;;;;;5112747;27;19924;-76
2021/10/28 03:00:35;;;;;;;;;;;9.90;99.90;;;;;;5112259;27;19952;-76
2021/10/28 03:03:03;;;;;;;;;;;9.90;99.90;;;;;;5111282;28;19930;-77
2021/10/28 03:05:29;;;;;;;;;;;9.90;99.90;;;;;;5111571;28;20018;-76
2021/10/28 03:07:56;;;;;;;;;;;9.90;99.90;;;;;;5113659;28;19931;-77
2021/10/28 03:10:23;;;;;;;;;;;9.80;99.90;;;;;;5110175;28;19924;-77
2021/10/28 03:12:52;;;;;;;;;;;9.80;99.90;;;;;;5115672;28;20018;-77
2021/10/28 03:15:19;;;;;;;;;;;9.90;99.90;;;;;;5119568;28;19975;-77
2021/10/28 03:18:07;;;;;;;;;;;9.90;99.90;;;;;;5123136;28;19927;-75
2021/10/28 03:26:17;;;;;;;;;;;9.90;99.90;;;;;;5028837;28;20358;-76
2021/10/28 03:28:44;;;;;;;;;;;9.90;99.90;;;;;;5080896;28;19924;-76
2021/10/28 03:31:11;;;;;;;;;;;9.80;99.90;;;;;;5121331;28;19924;-76
2021/10/28 03:33:39;;;;;;;;;;;9.80;99.90;;;;;;5126523;28;19927;-77
2021/10/28 03:36:12;;;;;;;;;;;9.80;99.90;;;;;;5119108;28;19928;-76
2021/10/28 03:38:49;;;;;;;;;;;9.90;99.90;;;;;;5116095;28;20294;-76
2021/10/28 03:55:52;;;;;;;;;;;9.90;99.90;;;;;;5106553;27;19923;-76
2021/10/28 04:07:08;;;;;;;;;;;9.80;99.90;;;;;;5116460;27;19977;-75
2021/10/28 04:28:56;;;;;;;;;;;9.80;99.90;;;;;;5115623;27;20046;-76
2021/10/28 04:31:26;;;;;;;;;;;9.70;99.90;;;;;;5121211;27;19930;-76
2021/10/28 04:33:53;;;;;;;;;;;9.70;99.90;;;;;;5120758;27;19930;-76
2021/10/28 04:36:19;;;;;;;;;;;9.70;99.90;;;;;;5128242;27;19928;-75
2021/10/28 04:38:46;;;;;;;;;;;9.60;99.90;;;;;;5123614;27;19928;-75
2021/10/28 04:41:14;;;;;;;;;;;9.60;99.90;;;;;;5115825;27;19930;-76
2021/10/28 04:43:41;;;;;;;;;;;9.70;99.90;;;;;;5119562;27;19931;-77
2021/10/28 04:46:08;;;;;;;;;;;9.80;99.90;;;;;;5119596;27;20290;-78
2021/10/28 04:48:34;;;;;;;;;;;9.70;99.90;;;;;;5120922;27;19923;-77
2021/10/28 04:51:01;;;;;;;;;;;9.70;99.90;;;;;;5113734;27;19924;-77
2021/10/28 04:53:29;;;;;;;;;;;9.70;99.90;;;;;;5117065;27;19924;-77
2021/10/28 04:55:56;;;;;;;;;;;9.80;99.90;;;;;;5118541;27;19963;-77
2021/10/28 04:58:24;;;;;;;;;;;9.70;99.90;;;;;;5118180;27;19924;-77
2021/10/28 05:00:51;;;;;;;;;;;9.60;99.90;;;;;;5121483;27;19951;-77
2021/10/28 05:03:18;;;;;;;;;;;9.50;99.90;;;;;;5118081;27;20532;-77
2021/10/28 05:05:45;;;;;;;;;;;9.50;99.90;;;;;;5116913;27;20022;-76
2021/10/28 05:08:12;;;;;;;;;;;9.50;99.90;;;;;;5119026;27;19930;-75
2021/10/28 05:10:40;;;;;;;;;;;9.50;99.90;;;;;;5119859;27;20006;-75
2021/10/28 05:13:11;;;;;;;;;;;9.50;99.90;;;;;;5118922;27;19923;-73
2021/10/28 05:15:41;;;;;;;;;;;9.50;99.90;;;;;;5120782;27;20438;-74
2021/10/28 05:18:09;;;;;;;;;;;9.40;99.90;;;;;;5123362;27;19923;-73
2021/10/28 05:20:35;;;;;;;;;;;9.40;99.90;;;;;;5112481;27;20384;-73
2021/10/28 05:23:02;;;;;;;;;;;9.40;99.90;;;;;;5119882;27;19934;-73
2021/10/28 05:25:29;;;;;;;;;;;9.30;99.90;;;;;;5115441;27;19923;-74
2021/10/28 05:27:56;;;;;;;;;;;9.20;99.90;;;;;;5121498;27;19924;-74
2021/10/28 05:30:23;;;;;;;;;;;9.10;99.90;;;;;;5114366;27;20047;-74
2021/10/28 05:32:51;;;;;;;;;;;9.10;99.90;;;;;;5113929;27;19924;-74
2021/10/28 05:35:18;;;;;;;;;;;9.00;99.90;;;;;;5117785;27;20406;-74
2021/10/28 05:37:44;;;;;;;;;;;8.90;99.90;;;;;;5114050;27;19924;-75
2021/10/28 05:40:12;;;;;;;;;;;8.80;99.90;;;;;;5119238;27;20010;-75
2021/10/28 05:42:42;;;;;;;;;;;8.90;99.90;;;;;;5113332;27;20006;-75
2021/10/28 05:45:09;;;;;;;;;;;8.80;99.90;;;;;;5112074;27;19976;-75
2021/10/28 05:47:37;;;;;;;;;;;8.70;99.90;;;;;;5113494;27;19924;-75
2021/10/28 05:50:06;;;;;;;;;;;8.70;99.90;;;;;;5111551;27;20008;-76
2021/10/28 05:52:34;;;;;;;;;;;8.70;99.90;;;;;;5119232;27;19946;-74
2021/10/28 05:55:03;;;;;;;;;;;8.70;99.90;;;;;;5120463;27;19930;-74
2021/10/28 05:57:31;;;;;;;;;;;8.60;99.90;;;;;;5115256;27;20012;-75
2021/10/28 05:59:58;;;;;;;;;;;8.60;99.90;;;;;;5121843;27;20651;-76
2021/10/28 06:02:25;;;;;;;;;;;8.50;99.90;;;;;;5122747;27;19923;-75
2021/10/28 06:04:52;;;;;;;;;;;8.50;99.90;;;;;;5112599;27;19924;-75
2021/10/28 06:07:20;;;;;;;;;;;8.60;99.90;;;;;;5119794;27;19931;-76
2021/10/28 06:09:48;;;;;;;;;;;8.50;99.90;;;;;;5120085;27;19927;-77
2021/10/28 06:12:16;;;;;;;;;;;8.50;99.90;;;;;;5112127;27;19928;-77
2021/10/28 06:14:42;;;;;;;;;;;8.50;99.90;;;;;;5121196;27;19935;-75
2021/10/28 06:17:13;;;;;;;;;;;8.50;99.90;;;;;;5117930;27;19989;-74
2021/10/28 06:19:39;;;;;;;;;;;8.40;99.90;;;;;;5113240;27;20018;-74
2021/10/28 06:22:06;;;;;;;;;;;8.30;99.90;;;;;;5123234;27;19933;-74
2021/10/28 06:24:34;;;;;;;;;;;8.30;99.90;;;;;;5118290;27;20034;-75
2021/10/28 06:27:01;;;;;;;;;;;8.40;99.90;;;;;;5118226;27;19924;-75
2021/10/28 06:29:28;;;;;;;;;;;8.40;99.90;;;;;;5112093;27;19924;-76
2021/10/28 06:31:55;;;;;;;;;;;8.30;99.90;;;;;;5109967;28;19923;-74
2021/10/28 06:34:25;;;;;;;;;;;8.30;99.90;;;;;;5116482;27;20014;-75
2021/10/28 06:36:52;;;;;;;;;;;8.30;99.90;;;;;;5119573;27;20015;-75
2021/10/28 06:39:19;;;;;;;;;;;8.30;99.90;;;;;;5112039;27;19928;-74
2021/10/28 06:41:47;;;;;;;;;;;8.30;99.90;;;;;;5120259;27;20318;-76
2021/10/28 06:44:14;;;;;;;;;;;8.20;99.90;;;;;;5125093;27;20300;-76
2021/10/28 06:46:40;;;;;;;;;;;8.20;99.90;;;;;;5120323;27;19930;-75
2021/10/28 06:49:07;;;;;;;;;;;8.20;99.90;;;;;;5110767;28;19927;-74
2021/10/28 06:51:37;;;;;;;;;;;8.30;99.90;;;;;;5117175;27;22437;-74
2021/10/28 06:54:08;;;;;;;;;;;8.30;99.90;;;;;;5115030;27;20374;-75
2021/10/28 07:02:17;;;;;;;;;;;8.10;99.90;;;;;;5120111;27;19946;-75
2021/10/28 07:04:44;;;;;;;;;;;8.10;99.90;;;;;;5112679;27;20011;-75
2021/10/28 07:07:10;;;;;;;;;;;8.10;99.90;;;;;;5113971;27;19967;-75
2021/10/28 07:09:39;;;;;;;;;;;8.00;99.90;;;;;;5120573;27;19923;-76
2021/10/28 07:12:10;;;;;;;;;;;8.10;99.90;;;;;;5122891;28;19935;-75
2021/10/28 07:14:40;;;;;;;;;;;8.10;99.90;;;;;;5119716;28;19923;-76
2021/10/28 07:17:17;;;;;;;;;;;8.20;99.90;;;;;;5115968;28;19927;-75
2021/10/28 07:20:03;;;;;;;;;;;8.30;99.90;;;;;;5116081;28;19977;-73
2021/10/28 07:25:24;;;;;;;;;;;8.40;99.90;;;;;;5117946;27;19961;-74
2021/10/28 07:28:15;;;;;;;;;;;8.50;99.90;;;;;;5122220;27;19931;-75
2021/10/28 07:33:48;;;;;;;;;;;8.60;99.90;;;;;;5125962;27;20455;-74
2021/10/28 07:36:24;;;;;;;;;;;8.60;99.90;;;;;;5114421;27;20020;-74
2021/10/28 08:06:25;;;;;;;;;;;17.20;99.90;;;;;;5120119;27;19953;-73
2021/10/28 08:14:36;;;;;;;;;;;20.60;68.20;;;;;;5117630;27;19980;-75
2021/10/28 08:19:56;;;;;;;;;;;21.20;61.20;;;;;;5119413;27;20018;-74
2021/10/28 08:22:25;;;;;;;;;;;20.60;58.70;;;;;;5123918;27;19942;-73
2021/10/28 08:30:24;;;;;;;;;;;21.40;54.80;;;;;;5122343;27;19930;-75
2021/10/28 08:32:51;;;;;;;;;;;21.90;53.40;;;;;;5116617;27;19924;-76
2021/10/28 08:35:19;;;;;;;;;;;21.60;52.30;;;;;;5119166;27;19933;-73
2021/10/28 08:37:50;;;;;;;;;;;21.40;51.50;;;;;;5127793;27;19946;-74
2021/10/28 08:40:16;;;;;;;;;;;21.30;51.50;;;;;;5122202;27;19931;-74
2021/10/28 08:42:43;;;;;;;;;;;21.40;51.80;;;;;;5118716;27;19930;-72
2021/10/28 08:45:13;;;;;;;;;;;21.60;50.60;;;;;;5117120;27;20297;-74
2021/10/28 08:47:45;;;;;;;;;;;20.80;50.00;;;;;;5119157;27;19942;-74
2021/10/28 08:50:14;;;;;;;;;;;20.50;52.40;;;;;;5113060;27;20493;-74
2021/10/28 08:52:53;;;;;;;;;;;20.30;52.50;;;;;;5121497;27;19927;-74
2021/10/28 08:55:26;;;;;;;;;;;20.20;53.60;;;;;;5121475;27;19931;-74
2021/10/28 09:26:12;;;;;;;;;;;14.10;91.30;;;;;;5118489;27;19956;-75
2021/10/28 09:28:40;;;;;;;;;;;13.60;96.90;;;;;;5120735;27;20392;-76
2021/10/28 09:31:11;;;;;;;;;;;13.40;99.90;;;;;;5122671;27;19938;-74
2021/10/28 09:33:47;;;;;;;;;;;13.40;99.90;;;;;;5118718;27;19934;-75
2021/10/28 09:44:50;;;;;;;;;;;13.60;99.90;;;;;;5116114;27;19930;-75
2021/10/28 09:47:47;;;;;;;;;;;13.60;99.90;;;;;;5119365;27;20443;-76
2021/10/28 09:50:18;;;;;;;;;;;13.60;99.90;;;;;;5117301;27;20296;-74
2021/10/28 09:53:04;;;;;;;;;;;13.60;99.90;;;;;;5114995;27;19931;-75
2021/10/28 09:58:26;;;;;;;;;;;13.80;99.90;;;;;;5122442;27;20024;-77
2021/10/28 10:00:53;;;;;;;;;;;13.90;99.90;;;;;;5120123;27;20018;-77
2021/10/28 10:03:24;;;;;;;;;;;13.90;99.90;;;;;;5123457;27;19927;-74
2021/10/28 10:05:56;;;;;;;;;;;13.90;99.90;;;;;;5114164;27;19923;-74
2021/10/28 10:08:23;;;;;;;;;;;13.90;99.90;;;;;;5114671;27;19931;-75
2021/10/28 10:10:50;;;;;;;;;;;13.90;99.90;;;;;;5119957;27;20297;-75
2021/10/28 10:13:17;;;;;;;;;;;14.00;99.90;;;;;;5123318;27;20018;-75
2021/10/28 10:15:45;;;;;;;;;;;14.10;99.90;;;;;;5121130;27;19955;-74
2021/10/28 10:18:14;;;;;;;;;;;14.10;99.90;;;;;;5120913;27;19946;-75
2021/10/28 10:20:46;;;;;;;;;;;14.20;99.90;;;;;;5119671;27;19924;-76
2021/10/28 10:23:25;;;;;;;;;;;14.20;99.90;;;;;;5117881;27;19977;-73
2021/10/28 10:26:08;;;;;;;;;;;14.30;99.90;;;;;;5120409;27;20306;-74
2021/10/28 10:29:15;;;;;;;;;;;14.20;99.90;;;;;;5124836;27;19923;-73
2021/10/28 11:27:13;;;;;;;;;;;15.70;98.00;;;;;;5113968;28;21330;-74
2021/10/28 11:32:53;;;;;;;;;;;15.80;97.50;;;;;;5121007;28;19954;-74
2021/10/28 12:14:40;;;;;;;;;;;16.50;93.30;;;;;;5117451;27;19945;-74
2021/10/28 12:25:43;;;;;;;;;;;16.70;92.30;;;;;;5117436;27;20037;-74
2021/10/28 12:45:05;;;;;;;;;;;16.90;90.60;;;;;;5121295;27;19945;-73
2021/10/28 12:47:52;;;;;;;;;;;16.80;90.80;;;;;;5121048;27;19928;-72
2021/10/28 12:53:28;;;;;;;;;;;16.90;90.90;;;;;;5115854;27;19935;-73
2021/10/28 12:56:18;;;;;;;;;;;16.90;90.40;;;;;;5117026;27;19923;-72
2021/10/28 13:04:38;;;;;;;;;;;16.90;89.70;;;;;;5116056;27;19958;-74
2021/10/28 13:37:57;;;;;;;;;;;17.10;87.40;;;;;;5087206;27;20412;-74
2021/10/28 13:48:44;;;;;;;;;;;17.00;86.00;;;;;;5111696;27;20408;-73
2021/10/28 13:51:33;;;;;;;;;;;17.00;86.30;;;;;;5111524;27;19924;-73
2021/10/28 13:56:58;;;;;;;;;;;17.00;82.90;;;;;;5094510;27;20032;-74
2021/10/28 14:21:32;;;;;;;;;;;16.90;84.10;;;;;;5119018;27;19923;-80
2021/10/28 15:02:57;;;;;;;;;;;16.50;89.30;;;;;;5112788;27;19937;-79
2021/10/28 15:30:11;;;;;;;;;;;16.00;90.10;;;;;;5112027;27;20386;-75
2021/10/28 15:35:44;;;;;;;;;;;15.90;90.10;;;;;;5113531;27;19938;-77
2021/10/28 15:38:30;;;;;;;;;;;15.90;90.10;;;;;;5114755;27;19928;-78
2021/10/28 15:41:34;;;;;;;;;;;15.90;90.30;;;;;;5115198;27;20034;-78
2021/10/28 16:23:12;;;;;;;;;;;14.60;93.40;;;;;;5117770;27;19949;-79
2021/10/28 16:25:38;;;;;;;;;;;14.50;93.70;;;;;;5115854;27;20355;-79
2021/10/28 16:28:05;;;;;;;;;;;14.40;94.00;;;;;;5120225;27;20359;-79
2021/10/28 16:30:32;;;;;;;;;;;14.20;94.30;;;;;;5115137;27;19931;-78
2021/10/28 16:32:59;;;;;;;;;;;14.20;94.70;;;;;;5119359;27;19927;-79
2021/10/28 16:35:27;;;;;;;;;;;14.10;95.10;;;;;;5117186;27;20022;-78
2021/10/28 16:37:54;;;;;;;;;;;14.00;95.60;;;;;;5118332;27;19923;-80
2021/10/28 16:40:22;;;;;;;;;;;14.10;95.80;;;;;;5118425;27;20469;-80
2021/10/28 16:42:48;;;;;;;;;;;14.20;95.70;;;;;;5118064;27;19928;-80
2021/10/28 16:45:15;;;;;;;;;;;14.10;95.80;;;;;;5120081;27;20022;-80
2021/10/28 16:47:42;;;;;;;;;;;14.10;96.10;;;;;;5120656;27;19928;-80
2021/10/28 16:50:11;;;;;;;;;;;14.30;95.90;;;;;;5118396;27;19930;-77
2021/10/28 16:52:38;;;;;;;;;;;14.40;95.60;;;;;;5115105;27;19923;-77
2021/10/28 16:55:05;;;;;;;;;;;14.40;95.60;;;;;;5115212;27;20022;-79
2021/10/28 16:57:33;;;;;;;;;;;14.40;95.60;;;;;;5116674;27;20647;-80
2021/10/28 17:00:00;;;;;;;;;;;14.40;95.70;;;;;;5120712;27;19924;-80
2021/10/28 17:02:27;;;;;;;;;;;14.30;95.70;;;;;;5115992;27;20350;-80
2021/10/28 17:04:53;;;;;;;;;;;14.30;95.70;;;;;;5120768;27;20332;-79
2021/10/28 17:07:22;;;;;;;;;;;14.30;95.70;;;;;;5115683;27;19947;-77
2021/10/28 17:09:50;;;;;;;;;;;14.40;95.70;;;;;;5124809;27;19984;-78
2021/10/28 17:12:17;;;;;;;;;;;14.40;95.50;;;;;;5117671;27;19958;-77
2021/10/28 17:14:45;;;;;;;;;;;14.40;95.60;;;;;;5116045;27;19923;-77
2021/10/28 17:17:12;;;;;;;;;;;14.30;95.50;;;;;;5120028;27;19981;-77
2021/10/28 17:19:41;;;;;;;;;;;14.20;95.50;;;;;;5116107;27;19923;-77
2021/10/28 17:22:08;;;;;;;;;;;14.20;95.50;;;;;;5115427;27;19932;-78
2021/10/28 17:24:37;;;;;;;;;;;14.20;95.50;;;;;;5117303;27;19931;-78
2021/10/28 17:27:04;;;;;;;;;;;14.20;95.50;;;;;;5122274;27;19932;-77
2021/10/28 17:29:32;;;;;;;;;;;14.20;95.60;;;;;;5117320;27;19924;-78
2021/10/28 17:32:00;;;;;;;;;;;14.20;95.60;;;;;;5121627;27;19967;-77
2021/10/28 17:34:27;;;;;;;;;;;14.10;95.70;;;;;;5115092;27;19974;-75
2021/10/28 17:36:55;;;;;;;;;;;14.00;95.80;;;;;;5119126;27;19930;-76
2021/10/28 17:39:22;;;;;;;;;;;14.00;96.00;;;;;;5112584;27;20023;-77
2021/10/28 17:41:49;;;;;;;;;;;13.90;96.30;;;;;;5111537;27;20360;-76
2021/10/28 17:44:16;;;;;;;;;;;13.70;96.30;;;;;;5114182;27;19924;-76
2021/10/28 17:46:42;;;;;;;;;;;13.50;96.80;;;;;;5116886;27;19938;-76
2021/10/28 17:49:10;;;;;;;;;;;13.40;97.60;;;;;;5115546;27;20003;-77
2021/10/28 17:51:38;;;;;;;;;;;13.40;97.80;;;;;;5114074;27;19923;-77
2021/10/28 17:54:09;;;;;;;;;;;13.30;98.40;;;;;;5115059;27;19966;-77
2021/10/28 17:56:36;;;;;;;;;;;13.30;99.10;;;;;;5118057;27;19940;-77
2021/10/28 17:59:05;;;;;;;;;;;13.20;99.70;;;;;;5113922;27;19970;-77
2021/10/28 18:01:33;;;;;;;;;;;13.40;99.90;;;;;;5118495;27;20419;-77
2021/10/28 18:04:00;;;;;;;;;;;13.40;99.90;;;;;;5112712;27;20024;-76
2021/10/28 18:06:30;;;;;;;;;;;13.60;99.90;;;;;;5111129;27;20015;-77
2021/10/28 18:08:57;;;;;;;;;;;13.60;99.90;;;;;;5113318;27;19930;-77
2021/10/28 18:11:24;;;;;;;;;;;13.60;99.90;;;;;;5111586;27;19969;-77
2021/10/28 18:13:54;;;;;;;;;;;13.60;99.90;;;;;;5112680;27;19930;-77
2021/10/28 18:16:22;;;;;;;;;;;13.50;99.90;;;;;;5111737;27;20019;-77
2021/10/28 18:18:50;;;;;;;;;;;13.50;99.90;;;;;;5113174;27;20298;-78
2021/10/28 18:21:17;;;;;;;;;;;13.50;99.90;;;;;;5122255;27;20044;-77
2021/10/28 18:23:48;;;;;;;;;;;13.50;99.90;;;;;;5113834;27;19974;-77
2021/10/28 18:26:15;;;;;;;;;;;13.50;99.90;;;;;;5113656;27;19936;-77
2021/10/28 18:28:42;;;;;;;;;;;13.50;99.90;;;;;;5114784;27;19927;-77
2021/10/28 18:31:09;;;;;;;;;;;13.40;99.90;;;;;;5111716;27;19930;-77
2021/10/28 18:33:35;;;;;;;;;;;13.50;99.90;;;;;;5112944;27;19923;-77
2021/10/28 18:36:04;;;;;;;;;;;13.40;99.90;;;;;;5118359;27;20301;-78
2021/10/28 18:38:32;;;;;;;;;;;13.50;99.90;;;;;;5118771;27;19927;-77
2021/10/28 18:41:00;;;;;;;;;;;13.50;99.90;;;;;;5111999;27;20030;-77
2021/10/28 18:43:27;;;;;;;;;;;13.50;99.90;;;;;;5119570;27;20377;-77
2021/10/28 18:45:54;;;;;;;;;;;13.40;99.90;;;;;;5116750;27;19930;-77
2021/10/28 18:48:22;;;;;;;;;;;13.40;99.90;;;;;;5124292;27;19924;-78
2021/10/28 18:50:49;;;;;;;;;;;13.40;99.90;;;;;;5117917;27;19992;-77
2021/10/28 18:53:16;;;;;;;;;;;13.50;99.90;;;;;;5116730;27;19924;-77
2021/10/28 18:55:44;;;;;;;;;;;13.40;99.90;;;;;;5117773;27;19927;-77
2021/10/28 18:58:12;;;;;;;;;;;13.30;99.90;;;;;;5116960;27;19931;-77
2021/10/28 19:00:39;;;;;;;;;;;13.20;99.90;;;;;;5112379;27;20375;-77
2021/10/28 19:03:05;;;;;;;;;;;13.20;99.90;;;;;;5121079;27;19924;-77
2021/10/28 19:05:32;;;;;;;;;;;13.10;99.90;;;;;;5109488;27;19930;-77
2021/10/28 19:07:59;;;;;;;;;;;13.10;99.90;;;;;;5114078;27;20547;-77
2021/10/28 19:10:26;;;;;;;;;;;13.10;99.90;;;;;;5121099;27;19963;-77
2021/10/28 19:12:52;;;;;;;;;;;13.00;99.90;;;;;;5120502;27;19924;-77
2021/10/28 19:15:20;;;;;;;;;;;12.90;99.90;;;;;;5110615;28;20015;-77
2021/10/28 19:17:50;;;;;;;;;;;12.90;99.90;;;;;;5121568;27;19949;-78
2021/10/28 19:20:17;;;;;;;;;;;12.80;99.90;;;;;;5114537;28;19984;-77
2021/10/28 19:22:44;;;;;;;;;;;12.70;99.90;;;;;;5121731;28;20301;-78
2021/10/28 19:25:11;;;;;;;;;;;12.60;99.90;;;;;;5113850;28;20014;-77
2021/10/28 19:27:38;;;;;;;;;;;12.50;99.90;;;;;;5121686;28;19924;-76
2021/10/28 19:30:11;;;;;;;;;;;12.50;99.90;;;;;;5111301;28;20381;-77
2021/10/28 19:32:39;;;;;;;;;;;12.40;99.90;;;;;;5119468;27;19923;-78
2021/10/28 19:35:07;;;;;;;;;;;12.30;99.90;;;;;;5116378;28;20282;-78
2021/10/28 19:37:38;;;;;;;;;;;12.30;99.90;;;;;;5120167;27;19978;-76
2021/10/28 19:40:16;;;;;;;;;;;12.30;99.90;;;;;;5121861;28;19951;-77
2021/10/28 19:46:08;;;;;;;;;;;12.20;99.90;;;;;;5113758;28;19930;-78
2021/10/28 19:48:21;;;;;;;;;;;12.10;99.90;;;;;;5116118;27;20297;-78
2021/10/28 19:50:48;;;;;;;;;;;12.10;99.90;;;;;;5123214;28;19974;-78
2021/10/28 19:53:15;;;;;;;;;;;12.10;99.90;;;;;;5116440;27;20379;-77
2021/10/28 19:55:43;;;;;;;;;;;12.10;99.90;;;;;;5113782;27;19934;-78
2021/10/28 19:58:13;;;;;;;;;;;12.20;99.90;;;;;;5120014;27;19947;-77
2021/10/28 20:00:45;;;;;;;;;;;12.20;99.90;;;;;;5117357;28;19974;-78
2021/10/28 20:03:40;;;;;;;;;;;12.10;99.90;;;;;;5115684;27;20433;-77
2021/10/28 20:06:14;;;;;;;;;;;12.10;99.90;;;;;;5121792;27;20274;-77
2021/10/28 20:14:22;;;;;;;;;;;12.00;99.90;;;;;;5117694;28;20631;-77
2021/10/28 20:22:18;;;;;;;;;;;12.30;99.90;;;;;;5120985;28;19976;-77
2021/10/28 20:24:45;;;;;;;;;;;12.40;99.90;;;;;;5120310;28;19932;-78
2021/10/28 20:27:12;;;;;;;;;;;12.50;99.90;;;;;;5128266;28;20345;-77
2021/10/28 20:29:38;;;;;;;;;;;12.60;99.90;;;;;;5128803;27;19938;-77
2021/10/28 20:32:05;;;;;;;;;;;12.70;99.90;;;;;;5116145;27;19949;-77
2021/10/28 20:34:35;;;;;;;;;;;12.80;99.90;;;;;;5121166;27;20242;-76
2021/10/28 20:37:06;;;;;;;;;;;12.80;99.90;;;;;;5115068;27;19924;-76
2021/10/28 20:39:35;;;;;;;;;;;12.80;99.90;;;;;;5112360;27;19924;-76
2021/10/28 20:42:02;;;;;;;;;;;12.70;99.90;;;;;;5118655;27;20031;-76
2021/10/28 20:44:28;;;;;;;;;;;12.70;99.90;;;;;;5119969;27;19930;-82
2021/10/28 20:46:55;;;;;;;;;;;12.70;99.90;;;;;;5140459;27;20022;-82
2021/10/28 20:49:22;;;;;;;;;;;12.60;99.90;;;;;;5143641;27;19986;-82
2021/10/28 20:51:48;;;;;;;;;;;12.60;99.90;;;;;;5141041;27;19963;-83
2021/10/28 20:54:15;;;;;;;;;;;12.70;99.90;;;;;;5127716;27;19937;-82
2021/10/28 20:56:43;;;;;;;;;;;12.70;99.90;;;;;;5121947;27;19927;-82
2021/10/28 20:59:10;;;;;;;;;;;12.70;99.90;;;;;;5125071;27;19953;-82
2021/10/28 21:01:36;;;;;;;;;;;12.70;99.90;;;;;;5119276;27;19923;-82
2021/10/28 21:04:03;;;;;;;;;;;12.70;99.90;;;;;;5115136;27;20018;-82
2021/10/28 21:06:30;;;;;;;;;;;12.60;99.90;;;;;;5122199;27;20362;-81
2021/10/28 21:08:58;;;;;;;;;;;12.60;99.90;;;;;;5123890;27;19931;-82
2021/10/28 21:11:25;;;;;;;;;;;12.60;99.90;;;;;;5126587;27;20009;-83
2021/10/28 21:13:54;;;;;;;;;;;12.70;99.90;;;;;;5121479;27;20378;-82
2021/10/28 21:16:20;;;;;;;;;;;12.60;99.90;;;;;;5121712;27;19969;-82
2021/10/28 21:18:47;;;;;;;;;;;12.60;99.90;;;;;;5125520;27;19923;-82
2021/10/28 21:21:14;;;;;;;;;;;12.60;99.90;;;;;;5118598;27;20400;-83
2021/10/28 21:23:41;;;;;;;;;;;12.60;99.90;;;;;;5139009;27;19911;-80
2021/10/28 21:26:08;;;;;;;;;;;12.70;99.90;;;;;;5140127;27;19912;-81
2021/10/28 21:28:34;;;;;;;;;;;12.60;99.90;;;;;;5136338;27;19978;-82
2021/10/28 21:31:02;;;;;;;;;;;12.60;99.90;;;;;;5120169;27;19924;-83
2021/10/28 21:33:29;;;;;;;;;;;12.60;99.90;;;;;;5125255;27;19924;-82
2021/10/28 21:35:56;;;;;;;;;;;12.60;99.90;;;;;;5120199;27;20382;-81
2021/10/28 21:38:23;;;;;;;;;;;12.60;99.90;;;;;;5119448;27;19930;-84
2021/10/28 21:40:50;;;;;;;;;;;12.60;99.90;;;;;;5122555;27;19923;-82
2021/10/28 21:43:17;;;;;;;;;;;12.60;99.90;;;;;;5121268;27;19927;-83
2021/10/28 21:45:47;;;;;;;;;;;12.60;99.90;;;;;;5126985;27;19967;-83
2021/10/28 21:48:15;;;;;;;;;;;12.60;99.90;;;;;;5131761;27;19923;-83
2021/10/28 21:50:42;;;;;;;;;;;12.70;99.90;;;;;;5118712;27;19923;-85
2021/10/28 21:53:11;;;;;;;;;;;12.70;99.90;;;;;;5122365;27;19930;-85
2021/10/28 21:55:47;;;;;;;;;;;12.70;99.90;;;;;;5119116;27;19934;-83
2021/10/28 21:58:18;;;;;;;;;;;12.70;99.90;;;;;;5117282;27;19935;-84
2021/10/28 22:00:55;;;;;;;;;;;12.60;99.90;;;;;;5120837;27;19949;-81
2021/10/28 22:06:48;;;;;;;;;;;12.60;99.90;;;;;;5126191;27;19931;-84
2021/10/28 22:25:53;;;;;;;;;;;12.40;99.90;;;;;;5050141;28;20288;-85
2021/10/28 22:28:19;;;;;;;;;;;12.40;99.90;;;;;;5099455;27;19988;-85
2021/10/28 22:30:46;;;;;;;;;;;12.30;99.90;;;;;;5118229;27;19955;-86
2021/10/28 22:33:13;;;;;;;;;;;12.30;99.90;;;;;;5114557;27;19974;-84
2021/10/28 22:35:46;;;;;;;;;;;12.30;99.90;;;;;;5115753;27;19924;-82
2021/10/28 22:38:13;;;;;;;;;;;12.30;99.90;;;;;;5120523;27;19924;-82
2021/10/28 22:40:44;;;;;;;;;;;12.30;99.90;;;;;;5114736;27;20030;-82